Miriam Moran — WQZ6572 — position and weather

sailwx.info

Track history (hours):
 
Tides and Currents Weather Stations Pressure Air Temp Water Temp Dewpoint Dewpoint Depression Visibility Wind Speed Wind Dir Waves Ship Positions

Miriam Moran

Owner: MORAN TOWING CORPORATION, New Canaan, CT. More information available from US FCC via Universal Licensing System and Coast Guard Vessel Documentation Center.

Last reported at 2017-Oct-17 20:21 UTC. Time now 2017-Oct-17 20:44 UTC.
Position N 40°38' W 074°08'.

Length 31 m; draft 4.6 m.

Type: Tug. MMSI: 366939710.

Date/timePositionNaut miles runAvg speedWind from/ knotsBaromVisibWave heightAir tempDewpointWater temp
2017-Oct-17 20:21N 40°38' W 074°08'0 0.0
2017-Oct-17 20:00N 40°38' W 074°08'0 0.0
2017-Oct-17 19:30N 40°38' W 074°08'0 0.0
2017-Oct-17 19:00N 40°38' W 074°08'0 0.0
2017-Oct-17 18:30N 40°38' W 074°08'0 0.0
2017-Oct-17 18:00N 40°38' W 074°08'0 0.0
2017-Oct-17 17:30N 40°38' W 074°08'0 0.0
2017-Oct-17 17:00N 40°38' W 074°08'0 0.0
2017-Oct-17 16:30N 40°38' W 074°08'0 0.0
2017-Oct-17 15:54N 40°38' W 074°08'0 0.0
2017-Oct-17 15:30N 40°38' W 074°08'0 0.0
2017-Oct-17 15:00N 40°38' W 074°08'1 3.0
2017-Oct-17 14:30N 40°39' W 074°06'1 2.0
2017-Oct-17 14:00N 40°39' W 074°05'2 4.8
2017-Oct-17 13:29N 40°38' W 074°08'0 0.0
2017-Oct-17 12:59N 40°38' W 074°08'0 0.0
2017-Oct-17 12:29N 40°38' W 074°08'0 0.0
2017-Oct-17 11:59N 40°38' W 074°08'0 0.0
2017-Oct-17 11:26N 40°38' W 074°08'1 3.3
2017-Oct-17 11:00N 40°40' W 074°09'1 2.2
2017-Oct-17 10:30N 40°41' W 074°09'0 0.2
2017-Oct-17 10:01N 40°41' W 074°09'2 4.4
2017-Oct-17 09:31N 40°39' W 074°09'0 0.4
2017-Oct-17 08:58N 40°39' W 074°09'1 2.1
2017-Oct-17 08:30N 40°40' W 074°09'0 0.1
2017-Oct-17 08:00N 40°40' W 074°09'1 2.6
2017-Oct-17 07:30N 40°39' W 074°08'0 0.3
2017-Oct-17 06:13N 40°38' W 074°08'0 0.0
2017-Oct-17 05:52N 40°38' W 074°08'0 0.0
2017-Oct-17 03:10N 40°38' W 074°08'0 0.0
2017-Oct-17 02:58N 40°38' W 074°08'0 0.0
2017-Oct-17 02:16N 40°38' W 074°08'0 0.0
2017-Oct-17 01:52N 40°38' W 074°08'2 4.2
2017-Oct-17 01:30N 40°40' W 074°08'2 3.9
2017-Oct-17 01:00N 40°42' W 074°09'1 2.0
2017-Oct-17 00:30N 40°41' W 074°08'3 5.2
2017-Oct-17 00:00N 40°39' W 074°09'2 4.8
2017-Oct-16 23:30N 40°39' W 074°06'2 4.8
2017-Oct-16 23:00N 40°40' W 074°03'2 4.7
2017-Oct-16 22:30N 40°41' W 074°01'0 0.4
2017-Oct-16 22:00N 40°41' W 074°00'4 8.9
2017-Oct-16 21:30N 40°39' W 074°05'2 4.0
2017-Oct-16 21:00N 40°38' W 074°08'0 0.0
2017-Oct-16 20:30N 40°38' W 074°08'0 0.0
2017-Oct-16 19:59N 40°38' W 074°08'0 0.0
2017-Oct-16 19:30N 40°38' W 074°08'0 0.0
2017-Oct-16 18:59N 40°38' W 074°08'0 0.0
2017-Oct-16 18:29N 40°38' W 074°08'0 0.0
2017-Oct-16 18:00N 40°38' W 074°08'0 0.7
2017-Oct-16 17:30N 40°39' W 074°08'1 2.9
2017-Oct-16 17:00N 40°40' W 074°09'1 1.1
2017-Oct-16 16:30N 40°39' W 074°09'2 3.6
2017-Oct-16 16:00N 40°39' W 074°06'2 4.9
2017-Oct-16 15:30N 40°38' W 074°03'2 4.2
2017-Oct-16 15:00N 40°36' W 074°03'2 3.4
2017-Oct-16 14:30N 40°38' W 074°04'3 3.3
2017-Oct-16 13:30N 40°38' W 074°08'0 0.0
2017-Oct-16 12:58N 40°38' W 074°08'0 0.0
2017-Oct-16 12:28N 40°38' W 074°08'0 0.0
2017-Oct-16 11:58N 40°38' W 074°08'2 3.8
2017-Oct-16 11:31N 40°40' W 074°08'2 3.3
2017-Oct-16 11:01N 40°39' W 074°08'3 5.1
2017-Oct-16 10:30N 40°39' W 074°05'3 5.6
2017-Oct-16 10:00N 40°36' W 074°03'2 4.8
2017-Oct-16 09:30N 40°39' W 074°04'3 5.6
2017-Oct-16 09:00N 40°38' W 074°08'0 0.0
2017-Oct-16 08:30N 40°38' W 074°08'0 0.0
2017-Oct-16 08:00N 40°38' W 074°08'0 0.0
2017-Oct-16 07:30N 40°38' W 074°08'0 0.0
2017-Oct-16 07:00N 40°38' W 074°08'0 0.0
2017-Oct-16 06:30N 40°38' W 074°08'0 0.0
2017-Oct-16 06:00N 40°38' W 074°08'0 0.0
2017-Oct-16 05:30N 40°38' W 074°08'0 0.0
2017-Oct-16 05:01N 40°38' W 074°08'2 4.3
2017-Oct-16 04:30N 40°39' W 074°05'0 0.0
2017-Oct-16 04:00N 40°39' W 074°05'1 2.7
2017-Oct-16 03:30N 40°39' W 074°07'1 1.4
2017-Oct-16 02:56N 40°38' W 074°08'0 0.0
2017-Oct-16 02:26N 40°38' W 074°08'0 0.0
2017-Oct-16 01:56N 40°38' W 074°08'0 0.0
2017-Oct-16 01:26N 40°38' W 074°08'0 0.0
2017-Oct-16 00:57N 40°38' W 074°08'0 0.0
2017-Oct-16 00:30N 40°38' W 074°08'0 0.0
2017-Oct-16 00:00N 40°38' W 074°08'0 0.0
2017-Oct-15 23:29N 40°38' W 074°08'0 0.0
2017-Oct-15 23:00N 40°38' W 074°08'0 0.0
2017-Oct-15 22:30N 40°38' W 074°08'0 0.0
2017-Oct-15 22:00N 40°38' W 074°08'0 0.7
2017-Oct-15 21:30N 40°39' W 074°08'2 3.8
2017-Oct-15 21:00N 40°41' W 074°08'2 3.8
2017-Oct-15 20:28N 40°39' W 074°08'0 0.2
2017-Oct-15 20:00N 40°38' W 074°08'0 0.0
2017-Oct-15 19:30N 40°38' W 074°08'0 0.0
2017-Oct-15 19:00N 40°38' W 074°08'0 0.0
2017-Oct-15 18:30N 40°38' W 074°08'0 0.0
2017-Oct-15 18:00N 40°38' W 074°08'0 0.0
2017-Oct-15 17:30N 40°38' W 074°08'0 0.0
2017-Oct-15 17:00N 40°38' W 074°08'0 0.0
2017-Oct-15 16:30N 40°38' W 074°08'1 2.0
2017-Oct-15 16:00N 40°39' W 074°07'0 0.2
2017-Oct-15 15:31N 40°39' W 074°07'1 1.5
2017-Oct-15 14:54N 40°38' W 074°08'0 0.0
2017-Oct-15 13:54N 40°38' W 074°08'0 0.0
2017-Oct-15 13:27N 40°38' W 074°08'0 0.0
2017-Oct-15 12:54N 40°38' W 074°08'0 0.0
2017-Oct-15 12:27N 40°38' W 074°08'0 0.0
2017-Oct-15 12:00N 40°38' W 074°08'1 1.1
2017-Oct-15 11:30N 40°39' W 074°08'2 4.0
2017-Oct-15 11:00N 40°41' W 074°08'0 0.8
2017-Oct-15 10:30N 40°41' W 074°09'0 0.0
2017-Oct-15 10:00N 40°41' W 074°09'2 3.8
2017-Oct-15 09:30N 40°39' W 074°09'1 2.0
2017-Oct-15 08:58N 40°38' W 074°08'0 0.0
2017-Oct-15 08:30N 40°38' W 074°08'0 0.0
2017-Oct-15 08:00N 40°38' W 074°08'0 0.0
2017-Oct-15 07:28N 40°38' W 074°08'0 0.0
2017-Oct-15 07:00N 40°38' W 074°08'0 0.0
2017-Oct-15 06:27N 40°38' W 074°08'0 0.0
2017-Oct-15 06:00N 40°38' W 074°08'0 0.0
2017-Oct-15 05:30N 40°38' W 074°08'0 0.0
2017-Oct-15 05:00N 40°38' W 074°08'0 0.0
2017-Oct-15 04:30N 40°38' W 074°08'2 3.7
2017-Oct-15 04:00N 40°39' W 074°05'0 0.0
2017-Oct-15 03:30N 40°39' W 074°05'0 0.0
2017-Oct-15 03:00N 40°39' W 074°05'2 3.0
2017-Oct-15 02:30N 40°38' W 074°04'1 2.2
2017-Oct-15 02:00N 40°37' W 074°04'2 3.9
2017-Oct-15 01:30N 40°39' W 074°05'2 2.7
2017-Oct-15 00:43N 40°38' W 074°08'0 0.0
2017-Oct-15 00:19N 40°38' W 074°08'0 0.0
2017-Oct-14 23:55N 40°38' W 074°08'0 0.0
2017-Oct-14 23:28N 40°38' W 074°08'0 0.0
2017-Oct-14 22:52N 40°38' W 074°08'0 0.0
2017-Oct-14 21:40N 40°38' W 074°08'0 0.0
2017-Oct-14 21:19N 40°38' W 074°08'0 0.0
2017-Oct-14 21:00N 40°38' W 074°08'0 0.0
2017-Oct-14 20:22N 40°38' W 074°08'0 0.0
2017-Oct-14 19:58N 40°38' W 074°08'2 4.0
2017-Oct-14 19:29N 40°40' W 074°08'1 2.3
2017-Oct-14 19:00N 40°41' W 074°09'1 2.1
2017-Oct-14 18:30N 40°40' W 074°08'2 3.4
2017-Oct-14 17:54N 40°39' W 074°07'3 6.9
2017-Oct-14 17:30N 40°38' W 074°03'4 7.0
2017-Oct-14 17:00N 40°39' W 074°08'0 0.2
2017-Oct-14 16:28N 40°38' W 074°08'0 0.0
2017-Oct-14 15:58N 40°38' W 074°08'0 0.0
2017-Oct-14 15:28N 40°38' W 074°08'0 0.0
2017-Oct-14 14:52N 40°38' W 074°08'2 5.9
2017-Oct-14 14:30N 40°39' W 074°05'1 1.2
2017-Oct-14 14:00N 40°39' W 074°04'1 1.5
2017-Oct-14 13:30N 40°39' W 074°05'2 0.4
2017-Oct-14 08:19N 40°38' W 074°08'0 0.0
2017-Oct-14 07:55N 40°38' W 074°08'0 0.0
2017-Oct-14 07:25N 40°38' W 074°08'0 0.0
2017-Oct-14 06:58N 40°38' W 074°08'0 0.0
2017-Oct-14 06:16N 40°38' W 074°08'0 0.0
2017-Oct-14 05:58N 40°38' W 074°08'0 0.0
2017-Oct-14 03:34N 40°38' W 074°08'0 0.0
2017-Oct-14 03:22N 40°38' W 074°08'0 0.0
2017-Oct-14 02:51N 40°38' W 074°08'2 6.1
2017-Oct-14 02:30N 40°39' W 074°05'0 0.2
2017-Oct-14 02:00N 40°39' W 074°05'2 3.3
2017-Oct-14 01:30N 40°38' W 074°03'3 5.7
2017-Oct-14 01:00N 40°39' W 074°07'1 1.2
2017-Oct-14 00:29N 40°38' W 074°08'0 0.0
2017-Oct-13 23:59N 40°38' W 074°08'0 0.0
2017-Oct-13 23:29N 40°38' W 074°08'0 0.0
2017-Oct-13 23:00N 40°38' W 074°08'0 0.0
2017-Oct-13 22:30N 40°38' W 074°08'0 0.0
2017-Oct-13 22:00N 40°38' W 074°08'0 0.0
2017-Oct-13 21:30N 40°38' W 074°08'1 1.3
2017-Oct-13 21:00N 40°39' W 074°07'0 0.1
2017-Oct-13 20:30N 40°39' W 074°07'1 1.3
2017-Oct-13 20:00N 40°38' W 074°08'0 0.0
2017-Oct-13 19:29N 40°38' W 074°08'0 0.0
2017-Oct-13 18:42N 40°38' W 074°08'0 0.0
2017-Oct-13 18:31N 40°38' W 074°08'0 0.0
2017-Oct-13 18:00N 40°38' W 074°08'0 0.0
2017-Oct-13 17:19N 40°38' W 074°08'0 0.0
2017-Oct-13 17:00N 40°38' W 074°08'3 6.0
2017-Oct-13 16:30N 40°38' W 074°12'5 3.3
2017-Oct-13 14:53N 40°33' W 074°14'1 0.4
2017-Oct-13 13:10N 40°33' W 074°15'3 7.7
2017-Oct-13 12:49N 40°35' W 074°13'310.7
2017-Oct-13 12:31N 40°38' W 074°12'3 5.7
2017-Oct-13 11:58N 40°38' W 074°08'0 0.0
2017-Oct-13 11:25N 40°38' W 074°08'0 0.0
2017-Oct-13 10:58N 40°38' W 074°08'3 5.7
2017-Oct-13 10:30N 40°39' W 074°04'1 1.7
2017-Oct-13 10:00N 40°40' W 074°04'1 1.3
2017-Oct-13 09:30N 40°40' W 074°05'0 0.0
2017-Oct-13 09:00N 40°40' W 074°05'3 5.1
2017-Oct-13 08:30N 40°39' W 074°07'0 0.6
2017-Oct-13 07:59N 40°38' W 074°08'0 0.0
2017-Oct-13 07:26N 40°38' W 074°08'0 0.0
2017-Oct-13 06:59N 40°38' W 074°08'0 0.0
2017-Oct-13 06:29N 40°38' W 074°08'0 0.0
2017-Oct-13 05:59N 40°38' W 074°08'0 0.0
2017-Oct-13 05:26N 40°38' W 074°08'0 0.0
2017-Oct-13 04:59N 40°38' W 074°08'0 0.0
2017-Oct-13 04:26N 40°38' W 074°08'0 0.0
2017-Oct-13 03:56N 40°38' W 074°08'0 0.0
2017-Oct-13 03:29N 40°38' W 074°08'0 0.0
2017-Oct-13 02:59N 40°38' W 074°08'1 2.3
2017-Oct-13 02:30N 40°39' W 074°09'2 3.4
2017-Oct-13 02:00N 40°41' W 074°09'0 0.9
2017-Oct-13 01:30N 40°41' W 074°09'3 5.4
2017-Oct-13 01:00N 40°39' W 074°09'1 0.3
2017-Oct-12 22:39N 40°38' W 074°08'1 7.1
2017-Oct-12 22:30N 40°39' W 074°09'3 5.2
2017-Oct-12 21:59N 40°42' W 074°08'2 3.2
2017-Oct-12 21:30N 40°40' W 074°08'2 3.5
2017-Oct-12 21:00N 40°39' W 074°08'0 0.1
2017-Oct-12 20:30N 40°38' W 074°08'0 0.0
2017-Oct-12 20:00N 40°38' W 074°08'0 0.0
2017-Oct-12 19:30N 40°38' W 074°08'2 3.1
2017-Oct-12 19:00N 40°40' W 074°08'1 2.5
2017-Oct-12 18:30N 40°41' W 074°09'0 0.1
2017-Oct-12 18:00N 40°41' W 074°09'3 5.3
2017-Oct-12 17:30N 40°39' W 074°08'0 0.3
2017-Oct-12 16:58N 40°38' W 074°08'0 0.0
2017-Oct-12 16:28N 40°38' W 074°08'0 0.0
2017-Oct-12 11:44N 40°38' W 074°08'1 4.9
2017-Oct-12 11:30N 40°39' W 074°09'1 2.8
2017-Oct-12 11:00N 40°41' W 074°09'1 1.3
2017-Oct-12 10:30N 40°40' W 074°08'1 2.9
2017-Oct-12 10:00N 40°39' W 074°09'2 4.3
2017-Oct-12 09:30N 40°39' W 074°06'1 2.5
2017-Oct-12 08:59N 40°38' W 074°08'0 0.1
2017-Oct-12 08:26N 40°38' W 074°08'0 0.0
2017-Oct-12 07:57N 40°38' W 074°08'0 0.0
2017-Oct-12 07:29N 40°38' W 074°08'0 0.0
2017-Oct-12 06:50N 40°38' W 074°08'1 4.4
2017-Oct-12 06:30N 40°40' W 074°08'2 3.6
2017-Oct-12 05:58N 40°42' W 074°09'0 0.9
2017-Oct-12 05:30N 40°41' W 074°08'2 4.6
2017-Oct-12 05:00N 40°39' W 074°09'1 2.2
2017-Oct-12 04:30N 40°39' W 074°08'0 0.2
2017-Oct-12 03:58N 40°38' W 074°08'0 0.0
2017-Oct-12 03:28N 40°38' W 074°08'0 0.0
2017-Oct-12 02:52N 40°38' W 074°08'0 0.0
2017-Oct-12 01:49N 40°38' W 074°08'0 0.0
2017-Oct-12 01:16N 40°38' W 074°08'0 0.0
2017-Oct-12 00:58N 40°38' W 074°08'2 4.5
2017-Oct-12 00:30N 40°39' W 074°05'0 0.0
2017-Oct-12 00:00N 40°39' W 074°05'0 0.6
2017-Oct-11 23:30N 40°39' W 074°05'0 0.8
2017-Oct-11 23:00N 40°39' W 074°04'0 0.9
2017-Oct-11 22:30N 40°39' W 074°05'3 5.4
2017-Oct-11 21:59N 40°40' W 074°08'2 3.6
2017-Oct-11 21:30N 40°42' W 074°09'2 3.6
2017-Oct-11 21:00N 40°40' W 074°08'2 3.3
2017-Oct-11 20:30N 40°39' W 074°07'3 6.6
2017-Oct-11 20:00N 40°40' W 074°03'2 4.0
2017-Oct-11 19:30N 40°41' W 074°01'3 5.7
2017-Oct-11 19:00N 40°40' W 074°04'1 1.9
2017-Oct-11 18:30N 40°39' W 074°05'1 1.8
2017-Oct-11 18:00N 40°39' W 074°06'0 0.0
2017-Oct-11 17:30N 40°39' W 074°06'2 3.7
2017-Oct-11 17:00N 40°39' W 074°08'3 0.2
2017-Oct-11 00:00N 40°41' W 074°09'0 0.5
2017-Oct-10 23:30N 40°41' W 074°09'0 0.0
2017-Oct-10 23:01N 40°41' W 074°09'0 0.0
2017-Oct-10 22:30N 40°41' W 074°09'0 0.0
2017-Oct-10 22:01N 40°41' W 074°09'1 1.1
2017-Oct-10 21:31N 40°41' W 074°08'0 0.2
2017-Oct-10 21:00N 40°41' W 074°08'0 0.4
2017-Oct-10 20:30N 40°41' W 074°08'1 2.2
2017-Oct-10 20:01N 40°42' W 074°07'1 1.6
2017-Oct-10 19:30N 40°43' W 074°07'2 3.2
2017-Oct-10 19:00N 40°41' W 074°08'3 5.1
2017-Oct-10 18:30N 40°39' W 074°08'0 0.4
2017-Oct-10 18:00N 40°38' W 074°08'0 0.0
2017-Oct-10 17:30N 40°38' W 074°08'0 0.0
2017-Oct-10 17:00N 40°38' W 074°08'0 0.0
2017-Oct-10 16:30N 40°38' W 074°08'2 4.4
2017-Oct-10 16:01N 40°41' W 074°08'0 0.4
2017-Oct-10 15:30N 40°40' W 074°08'1 2.4
2017-Oct-10 15:00N 40°39' W 074°09'1 1.1
2017-Oct-10 14:00N 40°38' W 074°08'0 0.2
2017-Oct-10 13:30N 40°39' W 074°08'0 0.2
2017-Oct-10 13:00N 40°38' W 074°08'0 0.0
2017-Oct-10 12:24N 40°38' W 074°08'0 0.0
2017-Oct-10 12:00N 40°38' W 074°08'0 0.0
2017-Oct-10 11:30N 40°38' W 074°08'2 4.3
2017-Oct-10 11:00N 40°40' W 074°08'1 1.6
2017-Oct-10 10:30N 40°41' W 074°09'1 2.1
2017-Oct-10 10:00N 40°40' W 074°08'2 3.4
2017-Oct-10 09:30N 40°39' W 074°09'3 6.4
2017-Oct-10 09:00N 40°39' W 074°04'3 5.0
2017-Oct-10 08:30N 40°37' W 074°03'3 5.8
2017-Oct-10 08:00N 40°39' W 074°06'0 0.0
2017-Oct-10 07:30N 40°39' W 074°06'0 0.0
2017-Oct-10 07:00N 40°39' W 074°06'0 0.4
2017-Oct-10 06:27N 40°39' W 074°06'0 0.0
2017-Oct-10 05:56N 40°39' W 074°06'0 0.5
2017-Oct-10 05:30N 40°39' W 074°06'0 0.0
2017-Oct-10 05:00N 40°39' W 074°06'0 0.0
2017-Oct-10 04:30N 40°39' W 074°06'2 3.7
2017-Oct-10 04:00N 40°40' W 074°04'1 2.0
2017-Oct-10 03:30N 40°40' W 074°05'1 2.6
2017-Oct-10 03:00N 40°39' W 074°05'2 0.4
2017-Oct-09 21:37N 40°38' W 074°08'1 7.8
2017-Oct-09 21:30N 40°39' W 074°09'3 6.1
2017-Oct-09 21:00N 40°42' W 074°08'1 2.5
2017-Oct-09 20:29N 40°40' W 074°08'2 4.1
2017-Oct-09 20:00N 40°39' W 074°07'2 4.9
2017-Oct-09 19:30N 40°41' W 074°09'1 1.1
2017-Oct-09 19:00N 40°41' W 074°09'1 2.7
2017-Oct-09 18:30N 40°40' W 074°08'2 3.0
2017-Oct-09 17:57N 40°39' W 074°07'3 5.6
2017-Oct-09 17:31N 40°39' W 074°04'2 3.1
2017-Oct-09 17:00N 40°39' W 074°06'1 1.9
2017-Oct-09 16:30N 40°39' W 074°07'3 6.8
2017-Oct-09 16:00N 40°42' W 074°07'1 1.5
2017-Oct-09 15:30N 40°43' W 074°07'2 3.3
2017-Oct-09 15:00N 40°41' W 074°08'3 5.2
2017-Oct-09 14:30N 40°39' W 074°08'1 0.5
2017-Oct-09 13:28N 40°38' W 074°08'0 0.0
2017-Oct-09 12:58N 40°38' W 074°08'0 0.0
2017-Oct-09 12:28N 40°38' W 074°08'0 0.0
2017-Oct-09 11:58N 40°38' W 074°08'0 0.0
2017-Oct-09 11:28N 40°38' W 074°08'0 0.0
2017-Oct-09 10:55N 40°38' W 074°08'0 0.0
2017-Oct-09 10:28N 40°38' W 074°08'0 0.0
2017-Oct-09 09:55N 40°38' W 074°08'0 0.0
2017-Oct-09 09:28N 40°38' W 074°08'0 0.0
2017-Oct-09 08:34N 40°38' W 074°08'0 0.0
2017-Oct-09 08:28N 40°38' W 074°08'0 0.1
2017-Oct-09 08:00N 40°39' W 074°08'0 0.1
2017-Oct-09 07:09N 40°38' W 074°08'0 0.0
2017-Oct-09 06:57N 40°38' W 074°08'0 0.0
2017-Oct-09 06:30N 40°38' W 074°08'0 0.0
2017-Oct-09 05:09N 40°38' W 074°08'0 0.0
2017-Oct-09 04:42N 40°38' W 074°08'0 0.0
2017-Oct-09 04:27N 40°38' W 074°08'0 0.0
2017-Oct-09 04:00N 40°38' W 074°08'0 0.0
2017-Oct-09 03:27N 40°38' W 074°08'0 0.0
2017-Oct-09 03:00N 40°38' W 074°08'2 4.3
2017-Oct-09 02:30N 40°41' W 074°08'1 1.8
2017-Oct-09 02:00N 40°41' W 074°09'0 0.3
2017-Oct-09 01:30N 40°41' W 074°09'1 2.3
2017-Oct-09 01:01N 40°40' W 074°08'2 2.6
2017-Oct-09 00:23N 40°38' W 074°08'0 0.0
2017-Oct-08 23:59N 40°38' W 074°08'0 0.0
2017-Oct-08 23:29N 40°38' W 074°08'0 0.0
2017-Oct-08 22:56N 40°38' W 074°08'0 0.0
2017-Oct-08 22:29N 40°38' W 074°08'0 0.0
2017-Oct-08 21:56N 40°38' W 074°08'0 0.0
2017-Oct-08 21:29N 40°38' W 074°08'0 0.0
2017-Oct-08 20:59N 40°38' W 074°08'0 0.0
2017-Oct-08 20:29N 40°38' W 074°08'0 0.0
2017-Oct-08 19:55N 40°38' W 074°08'0 0.0
2017-Oct-08 19:22N 40°38' W 074°08'0 0.0
2017-Oct-08 18:58N 40°38' W 074°08'0 0.0
2017-Oct-08 18:28N 40°38' W 074°08'0 0.0
2017-Oct-08 17:58N 40°38' W 074°08'0 0.0
2017-Oct-08 17:22N 40°38' W 074°08'0 0.0
2017-Oct-08 16:16N 40°38' W 074°08'0 0.0
2017-Oct-08 15:46N 40°38' W 074°08'0 0.1
2017-Oct-08 15:17N 40°39' W 074°08'2 7.0
2017-Oct-08 15:00N 40°40' W 074°08'4 7.7
2017-Oct-08 14:30N 40°44' W 074°07'1 2.3
2017-Oct-08 14:00N 40°43' W 074°07'0 0.7
2017-Oct-08 13:30N 40°43' W 074°07'2 4.5
2017-Oct-08 13:00N 40°41' W 074°08'2 3.9
2017-Oct-08 12:27N 40°38' W 074°08'0 0.0
2017-Oct-08 11:57N 40°38' W 074°08'0 0.0
2017-Oct-08 11:27N 40°38' W 074°08'0 0.0
2017-Oct-08 10:57N 40°38' W 074°08'0 0.0
2017-Oct-08 10:27N 40°38' W 074°08'0 0.0
2017-Oct-08 09:57N 40°38' W 074°08'0 0.0
2017-Oct-08 09:27N 40°38' W 074°08'0 0.0
2017-Oct-08 09:00N 40°38' W 074°08'0 0.0
2017-Oct-08 08:27N 40°38' W 074°08'0 0.0
2017-Oct-08 07:57N 40°38' W 074°08'0 0.0
2017-Oct-08 07:30N 40°38' W 074°08'0 0.0
2017-Oct-08 06:57N 40°38' W 074°08'0 0.0
2017-Oct-08 06:27N 40°38' W 074°08'0 0.0
2017-Oct-08 05:57N 40°38' W 074°08'0 0.0
2017-Oct-08 05:21N 40°38' W 074°08'0 0.0
2017-Oct-08 04:57N 40°38' W 074°08'0 0.0
2017-Oct-08 04:30N 40°38' W 074°08'0 0.0
2017-Oct-08 03:57N 40°38' W 074°08'0 0.0
2017-Oct-08 03:27N 40°38' W 074°08'0 0.0
2017-Oct-08 02:45N 40°38' W 074°08'0 0.0
2017-Oct-08 02:21N 40°38' W 074°08'0 0.0
2017-Oct-08 01:57N 40°38' W 074°08'0 0.0
2017-Oct-08 01:30N 40°38' W 074°08'0 0.0
2017-Oct-08 00:57N 40°38' W 074°08'0 0.0
2017-Oct-08 00:27N 40°38' W 074°08'0 0.0
2017-Oct-07 23:57N 40°38' W 074°08'0 0.0
2017-Oct-07 23:27N 40°38' W 074°08'1 2.0
2017-Oct-07 23:00N 40°39' W 074°09'3 5.7
2017-Oct-07 22:30N 40°41' W 074°08'0 0.1
2017-Oct-07 22:00N 40°42' W 074°08'3 5.7
2017-Oct-07 21:30N 40°39' W 074°09'3 5.2
2017-Oct-07 21:00N 40°39' W 074°06'0 0.0
2017-Oct-07 20:30N 40°39' W 074°06'  
Track history (hours):
 
Tides and Currents Weather Stations Pressure Air Temp Water Temp Dewpoint Dewpoint Depression Visibility Wind Speed Wind Dir Waves Ship Positions

Miriam Moran

Owner: MORAN TOWING CORPORATION, New Canaan, CT. More information available from US FCC via Universal Licensing System and Coast Guard Vessel Documentation Center.

Last reported at 2017-Oct-17 20:21 UTC. Time now 2017-Oct-17 20:44 UTC.
Position N 40°38' W 074°08'.

Length 31 m; draft 4.6 m.

Type: Tug. MMSI: 366939710.

Date/timePositionNaut miles runAvg speedWind from/ knotsBaromVisibWave heightAir tempDewpointWater temp
2017-Oct-17 20:21N 40°38' W 074°08'0 0.0
2017-Oct-17 20:00N 40°38' W 074°08'0 0.0
2017-Oct-17 19:30N 40°38' W 074°08'0 0.0
2017-Oct-17 19:00N 40°38' W 074°08'0 0.0
2017-Oct-17 18:30N 40°38' W 074°08'0 0.0
2017-Oct-17 18:00N 40°38' W 074°08'0 0.0
2017-Oct-17 17:30N 40°38' W 074°08'0 0.0
2017-Oct-17 17:00N 40°38' W 074°08'0 0.0
2017-Oct-17 16:30N 40°38' W 074°08'0 0.0
2017-Oct-17 15:54N 40°38' W 074°08'0 0.0
2017-Oct-17 15:30N 40°38' W 074°08'0 0.0
2017-Oct-17 15:00N 40°38' W 074°08'1 3.0
2017-Oct-17 14:30N 40°39' W 074°06'1 2.0
2017-Oct-17 14:00N 40°39' W 074°05'2 4.8
2017-Oct-17 13:29N 40°38' W 074°08'0 0.0
2017-Oct-17 12:59N 40°38' W 074°08'0 0.0
2017-Oct-17 12:29N 40°38' W 074°08'0 0.0
2017-Oct-17 11:59N 40°38' W 074°08'0 0.0
2017-Oct-17 11:26N 40°38' W 074°08'1 3.3
2017-Oct-17 11:00N 40°40' W 074°09'1 2.2
2017-Oct-17 10:30N 40°41' W 074°09'0 0.2
2017-Oct-17 10:01N 40°41' W 074°09'2 4.4
2017-Oct-17 09:31N 40°39' W 074°09'0 0.4
2017-Oct-17 08:58N 40°39' W 074°09'1 2.1
2017-Oct-17 08:30N 40°40' W 074°09'0 0.1
2017-Oct-17 08:00N 40°40' W 074°09'1 2.6
2017-Oct-17 07:30N 40°39' W 074°08'0 0.3
2017-Oct-17 06:13N 40°38' W 074°08'0 0.0
2017-Oct-17 05:52N 40°38' W 074°08'0 0.0
2017-Oct-17 03:10N 40°38' W 074°08'0 0.0
2017-Oct-17 02:58N 40°38' W 074°08'0 0.0
2017-Oct-17 02:16N 40°38' W 074°08'0 0.0
2017-Oct-17 01:52N 40°38' W 074°08'2 4.2
2017-Oct-17 01:30N 40°40' W 074°08'2 3.9
2017-Oct-17 01:00N 40°42' W 074°09'1 2.0
2017-Oct-17 00:30N 40°41' W 074°08'3 5.2
2017-Oct-17 00:00N 40°39' W 074°09'2 4.8
2017-Oct-16 23:30N 40°39' W 074°06'2 4.8
2017-Oct-16 23:00N 40°40' W 074°03'2 4.7
2017-Oct-16 22:30N 40°41' W 074°01'0 0.4
2017-Oct-16 22:00N 40°41' W 074°00'4 8.9
2017-Oct-16 21:30N 40°39' W 074°05'2 4.0
2017-Oct-16 21:00N 40°38' W 074°08'0 0.0
2017-Oct-16 20:30N 40°38' W 074°08'0 0.0
2017-Oct-16 19:59N 40°38' W 074°08'0 0.0
2017-Oct-16 19:30N 40°38' W 074°08'0 0.0
2017-Oct-16 18:59N 40°38' W 074°08'0 0.0
2017-Oct-16 18:29N 40°38' W 074°08'0 0.0
2017-Oct-16 18:00N 40°38' W 074°08'0 0.7
2017-Oct-16 17:30N 40°39' W 074°08'1 2.9
2017-Oct-16 17:00N 40°40' W 074°09'1 1.1
2017-Oct-16 16:30N 40°39' W 074°09'2 3.6
2017-Oct-16 16:00N 40°39' W 074°06'2 4.9
2017-Oct-16 15:30N 40°38' W 074°03'2 4.2
2017-Oct-16 15:00N 40°36' W 074°03'2 3.4
2017-Oct-16 14:30N 40°38' W 074°04'3 3.3
2017-Oct-16 13:30N 40°38' W 074°08'0 0.0
2017-Oct-16 12:58N 40°38' W 074°08'0 0.0
2017-Oct-16 12:28N 40°38' W 074°08'0 0.0
2017-Oct-16 11:58N 40°38' W 074°08'2 3.8
2017-Oct-16 11:31N 40°40' W 074°08'2 3.3
2017-Oct-16 11:01N 40°39' W 074°08'3 5.1
2017-Oct-16 10:30N 40°39' W 074°05'3 5.6
2017-Oct-16 10:00N 40°36' W 074°03'2 4.8
2017-Oct-16 09:30N 40°39' W 074°04'3 5.6
2017-Oct-16 09:00N 40°38' W 074°08'0 0.0
2017-Oct-16 08:30N 40°38' W 074°08'0 0.0
2017-Oct-16 08:00N 40°38' W 074°08'0 0.0
2017-Oct-16 07:30N 40°38' W 074°08'0 0.0
2017-Oct-16 07:00N 40°38' W 074°08'0 0.0
2017-Oct-16 06:30N 40°38' W 074°08'0 0.0
2017-Oct-16 06:00N 40°38' W 074°08'0 0.0
2017-Oct-16 05:30N 40°38' W 074°08'0 0.0
2017-Oct-16 05:01N 40°38' W 074°08'2 4.3
2017-Oct-16 04:30N 40°39' W 074°05'0 0.0
2017-Oct-16 04:00N 40°39' W 074°05'1 2.7
2017-Oct-16 03:30N 40°39' W 074°07'1 1.4
2017-Oct-16 02:56N 40°38' W 074°08'0 0.0
2017-Oct-16 02:26N 40°38' W 074°08'0 0.0
2017-Oct-16 01:56N 40°38' W 074°08'0 0.0
2017-Oct-16 01:26N 40°38' W 074°08'0 0.0
2017-Oct-16 00:57N 40°38' W 074°08'0 0.0
2017-Oct-16 00:30N 40°38' W 074°08'0 0.0
2017-Oct-16 00:00N 40°38' W 074°08'0 0.0
2017-Oct-15 23:29N 40°38' W 074°08'0 0.0
2017-Oct-15 23:00N 40°38' W 074°08'0 0.0
2017-Oct-15 22:30N 40°38' W 074°08'0 0.0
2017-Oct-15 22:00N 40°38' W 074°08'0 0.7
2017-Oct-15 21:30N 40°39' W 074°08'2 3.8
2017-Oct-15 21:00N 40°41' W 074°08'2 3.8
2017-Oct-15 20:28N 40°39' W 074°08'0 0.2
2017-Oct-15 20:00N 40°38' W 074°08'0 0.0
2017-Oct-15 19:30N 40°38' W 074°08'0 0.0
2017-Oct-15 19:00N 40°38' W 074°08'0 0.0
2017-Oct-15 18:30N 40°38' W 074°08'0 0.0
2017-Oct-15 18:00N 40°38' W 074°08'0 0.0
2017-Oct-15 17:30N 40°38' W 074°08'0 0.0
2017-Oct-15 17:00N 40°38' W 074°08'0 0.0
2017-Oct-15 16:30N 40°38' W 074°08'1 2.0
2017-Oct-15 16:00N 40°39' W 074°07'0 0.2
2017-Oct-15 15:31N 40°39' W 074°07'1 1.5
2017-Oct-15 14:54N 40°38' W 074°08'0 0.0
2017-Oct-15 13:54N 40°38' W 074°08'0 0.0
2017-Oct-15 13:27N 40°38' W 074°08'0 0.0
2017-Oct-15 12:54N 40°38' W 074°08'0 0.0
2017-Oct-15 12:27N 40°38' W 074°08'0 0.0
2017-Oct-15 12:00N 40°38' W 074°08'1 1.1
2017-Oct-15 11:30N 40°39' W 074°08'2 4.0
2017-Oct-15 11:00N 40°41' W 074°08'0 0.8
2017-Oct-15 10:30N 40°41' W 074°09'0 0.0
2017-Oct-15 10:00N 40°41' W 074°09'2 3.8
2017-Oct-15 09:30N 40°39' W 074°09'1 2.0
2017-Oct-15 08:58N 40°38' W 074°08'0 0.0
2017-Oct-15 08:30N 40°38' W 074°08'0 0.0
2017-Oct-15 08:00N 40°38' W 074°08'0 0.0
2017-Oct-15 07:28N 40°38' W 074°08'0 0.0
2017-Oct-15 07:00N 40°38' W 074°08'0 0.0
2017-Oct-15 06:27N 40°38' W 074°08'0 0.0
2017-Oct-15 06:00N 40°38' W 074°08'0 0.0
2017-Oct-15 05:30N 40°38' W 074°08'0 0.0
2017-Oct-15 05:00N 40°38' W 074°08'0 0.0
2017-Oct-15 04:30N 40°38' W 074°08'2 3.7
2017-Oct-15 04:00N 40°39' W 074°05'0 0.0
2017-Oct-15 03:30N 40°39' W 074°05'0 0.0
2017-Oct-15 03:00N 40°39' W 074°05'2 3.0
2017-Oct-15 02:30N 40°38' W 074°04'1 2.2
2017-Oct-15 02:00N 40°37' W 074°04'2 3.9
2017-Oct-15 01:30N 40°39' W 074°05'2 2.7
2017-Oct-15 00:43N 40°38' W 074°08'0 0.0
2017-Oct-15 00:19N 40°38' W 074°08'0 0.0
2017-Oct-14 23:55N 40°38' W 074°08'0 0.0
2017-Oct-14 23:28N 40°38' W 074°08'0 0.0
2017-Oct-14 22:52N 40°38' W 074°08'0 0.0
2017-Oct-14 21:40N 40°38' W 074°08'0 0.0
2017-Oct-14 21:19N 40°38' W 074°08'0 0.0
2017-Oct-14 21:00N 40°38' W 074°08'0 0.0
2017-Oct-14 20:22N 40°38' W 074°08'0 0.0
2017-Oct-14 19:58N 40°38' W 074°08'2 4.0
2017-Oct-14 19:29N 40°40' W 074°08'1 2.3
2017-Oct-14 19:00N 40°41' W 074°09'1 2.1
2017-Oct-14 18:30N 40°40' W 074°08'2 3.4
2017-Oct-14 17:54N 40°39' W 074°07'3 6.9
2017-Oct-14 17:30N 40°38' W 074°03'4 7.0
2017-Oct-14 17:00N 40°39' W 074°08'0 0.2
2017-Oct-14 16:28N 40°38' W 074°08'0 0.0
2017-Oct-14 15:58N 40°38' W 074°08'0 0.0
2017-Oct-14 15:28N 40°38' W 074°08'0 0.0
2017-Oct-14 14:52N 40°38' W 074°08'2 5.9
2017-Oct-14 14:30N 40°39' W 074°05'1 1.2
2017-Oct-14 14:00N 40°39' W 074°04'1 1.5
2017-Oct-14 13:30N 40°39' W 074°05'2 0.4
2017-Oct-14 08:19N 40°38' W 074°08'0 0.0
2017-Oct-14 07:55N 40°38' W 074°08'0 0.0
2017-Oct-14 07:25N 40°38' W 074°08'0 0.0
2017-Oct-14 06:58N 40°38' W 074°08'0 0.0
2017-Oct-14 06:16N 40°38' W 074°08'0 0.0
2017-Oct-14 05:58N 40°38' W 074°08'0 0.0
2017-Oct-14 03:34N 40°38' W 074°08'0 0.0
2017-Oct-14 03:22N 40°38' W 074°08'0 0.0
2017-Oct-14 02:51N 40°38' W 074°08'2 6.1
2017-Oct-14 02:30N 40°39' W 074°05'0 0.2
2017-Oct-14 02:00N 40°39' W 074°05'2 3.3
2017-Oct-14 01:30N 40°38' W 074°03'3 5.7
2017-Oct-14 01:00N 40°39' W 074°07'1 1.2
2017-Oct-14 00:29N 40°38' W 074°08'0 0.0
2017-Oct-13 23:59N 40°38' W 074°08'0 0.0
2017-Oct-13 23:29N 40°38' W 074°08'0 0.0
2017-Oct-13 23:00N 40°38' W 074°08'0 0.0
2017-Oct-13 22:30N 40°38' W 074°08'0 0.0
2017-Oct-13 22:00N 40°38' W 074°08'0 0.0
2017-Oct-13 21:30N 40°38' W 074°08'1 1.3
2017-Oct-13 21:00N 40°39' W 074°07'0 0.1
2017-Oct-13 20:30N 40°39' W 074°07'1 1.3
2017-Oct-13 20:00N 40°38' W 074°08'0 0.0
2017-Oct-13 19:29N 40°38' W 074°08'0 0.0
2017-Oct-13 18:42N 40°38' W 074°08'0 0.0
2017-Oct-13 18:31N 40°38' W 074°08'0 0.0
2017-Oct-13 18:00N 40°38' W 074°08'0 0.0
2017-Oct-13 17:19N 40°38' W 074°08'0 0.0
2017-Oct-13 17:00N 40°38' W 074°08'3 6.0
2017-Oct-13 16:30N 40°38' W 074°12'5 3.3
2017-Oct-13 14:53N 40°33' W 074°14'1 0.4
2017-Oct-13 13:10N 40°33' W 074°15'3 7.7
2017-Oct-13 12:49N 40°35' W 074°13'310.7
2017-Oct-13 12:31N 40°38' W 074°12'3 5.7
2017-Oct-13 11:58N 40°38' W 074°08'0 0.0
2017-Oct-13 11:25N 40°38' W 074°08'0 0.0
2017-Oct-13 10:58N 40°38' W 074°08'3 5.7
2017-Oct-13 10:30N 40°39' W 074°04'1 1.7
2017-Oct-13 10:00N 40°40' W 074°04'1 1.3
2017-Oct-13 09:30N 40°40' W 074°05'0 0.0
2017-Oct-13 09:00N 40°40' W 074°05'3 5.1
2017-Oct-13 08:30N 40°39' W 074°07'0 0.6
2017-Oct-13 07:59N 40°38' W 074°08'0 0.0
2017-Oct-13 07:26N 40°38' W 074°08'0 0.0
2017-Oct-13 06:59N 40°38' W 074°08'0 0.0
2017-Oct-13 06:29N 40°38' W 074°08'0 0.0
2017-Oct-13 05:59N 40°38' W 074°08'0 0.0
2017-Oct-13 05:26N 40°38' W 074°08'0 0.0
2017-Oct-13 04:59N 40°38' W 074°08'0 0.0
2017-Oct-13 04:26N 40°38' W 074°08'0 0.0
2017-Oct-13 03:56N 40°38' W 074°08'0 0.0
2017-Oct-13 03:29N 40°38' W 074°08'0 0.0
2017-Oct-13 02:59N 40°38' W 074°08'1 2.3
2017-Oct-13 02:30N 40°39' W 074°09'2 3.4
2017-Oct-13 02:00N 40°41' W 074°09'0 0.9
2017-Oct-13 01:30N 40°41' W 074°09'3 5.4
2017-Oct-13 01:00N 40°39' W 074°09'1 0.3
2017-Oct-12 22:39N 40°38' W 074°08'1 7.1
2017-Oct-12 22:30N 40°39' W 074°09'3 5.2
2017-Oct-12 21:59N 40°42' W 074°08'2 3.2
2017-Oct-12 21:30N 40°40' W 074°08'2 3.5
2017-Oct-12 21:00N 40°39' W 074°08'0 0.1
2017-Oct-12 20:30N 40°38' W 074°08'0 0.0
2017-Oct-12 20:00N 40°38' W 074°08'0 0.0
2017-Oct-12 19:30N 40°38' W 074°08'2 3.1
2017-Oct-12 19:00N 40°40' W 074°08'1 2.5
2017-Oct-12 18:30N 40°41' W 074°09'0 0.1
2017-Oct-12 18:00N 40°41' W 074°09'3 5.3
2017-Oct-12 17:30N 40°39' W 074°08'0 0.3
2017-Oct-12 16:58N 40°38' W 074°08'0 0.0
2017-Oct-12 16:28N 40°38' W 074°08'0 0.0
2017-Oct-12 11:44N 40°38' W 074°08'1 4.9
2017-Oct-12 11:30N 40°39' W 074°09'1 2.8
2017-Oct-12 11:00N 40°41' W 074°09'1 1.3
2017-Oct-12 10:30N 40°40' W 074°08'1 2.9
2017-Oct-12 10:00N 40°39' W 074°09'2 4.3
2017-Oct-12 09:30N 40°39' W 074°06'1 2.5
2017-Oct-12 08:59N 40°38' W 074°08'0 0.1
2017-Oct-12 08:26N 40°38' W 074°08'0 0.0
2017-Oct-12 07:57N 40°38' W 074°08'0 0.0
2017-Oct-12 07:29N 40°38' W 074°08'0 0.0
2017-Oct-12 06:50N 40°38' W 074°08'1 4.4
2017-Oct-12 06:30N 40°40' W 074°08'2 3.6
2017-Oct-12 05:58N 40°42' W 074°09'0 0.9
2017-Oct-12 05:30N 40°41' W 074°08'2 4.6
2017-Oct-12 05:00N 40°39' W 074°09'1 2.2
2017-Oct-12 04:30N 40°39' W 074°08'0 0.2
2017-Oct-12 03:58N 40°38' W 074°08'0 0.0
2017-Oct-12 03:28N 40°38' W 074°08'0 0.0
2017-Oct-12 02:52N 40°38' W 074°08'0 0.0
2017-Oct-12 01:49N 40°38' W 074°08'0 0.0
2017-Oct-12 01:16N 40°38' W 074°08'0 0.0
2017-Oct-12 00:58N 40°38' W 074°08'2 4.5
2017-Oct-12 00:30N 40°39' W 074°05'0 0.0
2017-Oct-12 00:00N 40°39' W 074°05'0 0.6
2017-Oct-11 23:30N 40°39' W 074°05'0 0.8
2017-Oct-11 23:00N 40°39' W 074°04'0 0.9
2017-Oct-11 22:30N 40°39' W 074°05'3 5.4
2017-Oct-11 21:59N 40°40' W 074°08'2 3.6
2017-Oct-11 21:30N 40°42' W 074°09'2 3.6
2017-Oct-11 21:00N 40°40' W 074°08'2 3.3
2017-Oct-11 20:30N 40°39' W 074°07'3 6.6
2017-Oct-11 20:00N 40°40' W 074°03'2 4.0
2017-Oct-11 19:30N 40°41' W 074°01'3 5.7
2017-Oct-11 19:00N 40°40' W 074°04'1 1.9
2017-Oct-11 18:30N 40°39' W 074°05'1 1.8
2017-Oct-11 18:00N 40°39' W 074°06'0 0.0
2017-Oct-11 17:30N 40°39' W 074°06'2 3.7
2017-Oct-11 17:00N 40°39' W 074°08'3 0.2
2017-Oct-11 00:00N 40°41' W 074°09'0 0.5
2017-Oct-10 23:30N 40°41' W 074°09'0 0.0
2017-Oct-10 23:01N 40°41' W 074°09'0 0.0
2017-Oct-10 22:30N 40°41' W 074°09'0 0.0
2017-Oct-10 22:01N 40°41' W 074°09'1 1.1
2017-Oct-10 21:31N 40°41' W 074°08'0 0.2
2017-Oct-10 21:00N 40°41' W 074°08'0 0.4
2017-Oct-10 20:30N 40°41' W 074°08'1 2.2
2017-Oct-10 20:01N 40°42' W 074°07'1 1.6
2017-Oct-10 19:30N 40°43' W 074°07'2 3.2
2017-Oct-10 19:00N 40°41' W 074°08'3 5.1
2017-Oct-10 18:30N 40°39' W 074°08'0 0.4
2017-Oct-10 18:00N 40°38' W 074°08'0 0.0
2017-Oct-10 17:30N 40°38' W 074°08'0 0.0
2017-Oct-10 17:00N 40°38' W 074°08'0 0.0
2017-Oct-10 16:30N 40°38' W 074°08'2 4.4
2017-Oct-10 16:01N 40°41' W 074°08'0 0.4
2017-Oct-10 15:30N 40°40' W 074°08'1 2.4
2017-Oct-10 15:00N 40°39' W 074°09'1 1.1
2017-Oct-10 14:00N 40°38' W 074°08'0 0.2
2017-Oct-10 13:30N 40°39' W 074°08'0 0.2
2017-Oct-10 13:00N 40°38' W 074°08'0 0.0
2017-Oct-10 12:24N 40°38' W 074°08'0 0.0
2017-Oct-10 12:00N 40°38' W 074°08'0 0.0
2017-Oct-10 11:30N 40°38' W 074°08'2 4.3
2017-Oct-10 11:00N 40°40' W 074°08'1 1.6
2017-Oct-10 10:30N 40°41' W 074°09'1 2.1
2017-Oct-10 10:00N 40°40' W 074°08'2 3.4
2017-Oct-10 09:30N 40°39' W 074°09'3 6.4
2017-Oct-10 09:00N 40°39' W 074°04'3 5.0
2017-Oct-10 08:30N 40°37' W 074°03'3 5.8
2017-Oct-10 08:00N 40°39' W 074°06'0 0.0
2017-Oct-10 07:30N 40°39' W 074°06'0 0.0
2017-Oct-10 07:00N 40°39' W 074°06'0 0.4
2017-Oct-10 06:27N 40°39' W 074°06'0 0.0
2017-Oct-10 05:56N 40°39' W 074°06'0 0.5
2017-Oct-10 05:30N 40°39' W 074°06'0 0.0
2017-Oct-10 05:00N 40°39' W 074°06'0 0.0
2017-Oct-10 04:30N 40°39' W 074°06'2 3.7
2017-Oct-10 04:00N 40°40' W 074°04'1 2.0
2017-Oct-10 03:30N 40°40' W 074°05'1 2.6
2017-Oct-10 03:00N 40°39' W 074°05'2 0.4
2017-Oct-09 21:37N 40°38' W 074°08'1 7.8
2017-Oct-09 21:30N 40°39' W 074°09'3 6.1
2017-Oct-09 21:00N 40°42' W 074°08'1 2.5
2017-Oct-09 20:29N 40°40' W 074°08'2 4.1
2017-Oct-09 20:00N 40°39' W 074°07'2 4.9
2017-Oct-09 19:30N 40°41' W 074°09'1 1.1
2017-Oct-09 19:00N 40°41' W 074°09'1 2.7
2017-Oct-09 18:30N 40°40' W 074°08'2 3.0
2017-Oct-09 17:57N 40°39' W 074°07'3 5.6
2017-Oct-09 17:31N 40°39' W 074°04'2 3.1
2017-Oct-09 17:00N 40°39' W 074°06'1 1.9
2017-Oct-09 16:30N 40°39' W 074°07'3 6.8
2017-Oct-09 16:00N 40°42' W 074°07'1 1.5
2017-Oct-09 15:30N 40°43' W 074°07'2 3.3
2017-Oct-09 15:00N 40°41' W 074°08'3 5.2
2017-Oct-09 14:30N 40°39' W 074°08'1 0.5
2017-Oct-09 13:28N 40°38' W 074°08'0 0.0
2017-Oct-09 12:58N 40°38' W 074°08'0 0.0
2017-Oct-09 12:28N 40°38' W 074°08'0 0.0
2017-Oct-09 11:58N 40°38' W 074°08'0 0.0
2017-Oct-09 11:28N 40°38' W 074°08'0 0.0
2017-Oct-09 10:55N 40°38' W 074°08'0 0.0
2017-Oct-09 10:28N 40°38' W 074°08'0 0.0
2017-Oct-09 09:55N 40°38' W 074°08'0 0.0
2017-Oct-09 09:28N 40°38' W 074°08'0 0.0
2017-Oct-09 08:34N 40°38' W 074°08'0 0.0
2017-Oct-09 08:28N 40°38' W 074°08'0 0.1
2017-Oct-09 08:00N 40°39' W 074°08'0 0.1
2017-Oct-09 07:09N 40°38' W 074°08'0 0.0
2017-Oct-09 06:57N 40°38' W 074°08'0 0.0
2017-Oct-09 06:30N 40°38' W 074°08'0 0.0
2017-Oct-09 05:09N 40°38' W 074°08'0 0.0
2017-Oct-09 04:42N 40°38' W 074°08'0 0.0
2017-Oct-09 04:27N 40°38' W 074°08'0 0.0
2017-Oct-09 04:00N 40°38' W 074°08'0 0.0
2017-Oct-09 03:27N 40°38' W 074°08'0 0.0
2017-Oct-09 03:00N 40°38' W 074°08'2 4.3
2017-Oct-09 02:30N 40°41' W 074°08'1 1.8
2017-Oct-09 02:00N 40°41' W 074°09'0 0.3
2017-Oct-09 01:30N 40°41' W 074°09'1 2.3
2017-Oct-09 01:01N 40°40' W 074°08'2 2.6
2017-Oct-09 00:23N 40°38' W 074°08'0 0.0
2017-Oct-08 23:59N 40°38' W 074°08'0 0.0
2017-Oct-08 23:29N 40°38' W 074°08'0 0.0
2017-Oct-08 22:56N 40°38' W 074°08'0 0.0
2017-Oct-08 22:29N 40°38' W 074°08'0 0.0
2017-Oct-08 21:56N 40°38' W 074°08'0 0.0
2017-Oct-08 21:29N 40°38' W 074°08'0 0.0
2017-Oct-08 20:59N 40°38' W 074°08'0 0.0
2017-Oct-08 20:29N 40°38' W 074°08'0 0.0
2017-Oct-08 19:55N 40°38' W 074°08'0 0.0
2017-Oct-08 19:22N 40°38' W 074°08'0 0.0
2017-Oct-08 18:58N 40°38' W 074°08'0 0.0
2017-Oct-08 18:28N 40°38' W 074°08'0 0.0
2017-Oct-08 17:58N 40°38' W 074°08'0 0.0
2017-Oct-08 17:22N 40°38' W 074°08'0 0.0
2017-Oct-08 16:16N 40°38' W 074°08'0 0.0
2017-Oct-08 15:46N 40°38' W 074°08'0 0.1
2017-Oct-08 15:17N 40°39' W 074°08'2 7.0
2017-Oct-08 15:00N 40°40' W 074°08'4 7.7
2017-Oct-08 14:30N 40°44' W 074°07'1 2.3
2017-Oct-08 14:00N 40°43' W 074°07'0 0.7
2017-Oct-08 13:30N 40°43' W 074°07'2 4.5
2017-Oct-08 13:00N 40°41' W 074°08'2 3.9
2017-Oct-08 12:27N 40°38' W 074°08'0 0.0
2017-Oct-08 11:57N 40°38' W 074°08'0 0.0
2017-Oct-08 11:27N 40°38' W 074°08'0 0.0
2017-Oct-08 10:57N 40°38' W 074°08'0 0.0
2017-Oct-08 10:27N 40°38' W 074°08'0 0.0
2017-Oct-08 09:57N 40°38' W 074°08'0 0.0
2017-Oct-08 09:27N 40°38' W 074°08'0 0.0
2017-Oct-08 09:00N 40°38' W 074°08'0 0.0
2017-Oct-08 08:27N 40°38' W 074°08'0 0.0
2017-Oct-08 07:57N 40°38' W 074°08'0 0.0
2017-Oct-08 07:30N 40°38' W 074°08'0 0.0
2017-Oct-08 06:57N 40°38' W 074°08'0 0.0
2017-Oct-08 06:27N 40°38' W 074°08'0 0.0
2017-Oct-08 05:57N 40°38' W 074°08'0 0.0
2017-Oct-08 05:21N 40°38' W 074°08'0 0.0
2017-Oct-08 04:57N 40°38' W 074°08'0 0.0
2017-Oct-08 04:30N 40°38' W 074°08'0 0.0
2017-Oct-08 03:57N 40°38' W 074°08'0 0.0
2017-Oct-08 03:27N 40°38' W 074°08'0 0.0
2017-Oct-08 02:45N 40°38' W 074°08'0 0.0
2017-Oct-08 02:21N 40°38' W 074°08'0 0.0
2017-Oct-08 01:57N 40°38' W 074°08'0 0.0
2017-Oct-08 01:30N 40°38' W 074°08'0 0.0
2017-Oct-08 00:57N 40°38' W 074°08'0 0.0
2017-Oct-08 00:27N 40°38' W 074°08'0 0.0
2017-Oct-07 23:57N 40°38' W 074°08'0 0.0
2017-Oct-07 23:27N 40°38' W 074°08'1 2.0
2017-Oct-07 23:00N 40°39' W 074°09'3 5.7
2017-Oct-07 22:30N 40°41' W 074°08'0 0.1
2017-Oct-07 22:00N 40°42' W 074°08'3 5.7
2017-Oct-07 21:30N 40°39' W 074°09'3 5.2
2017-Oct-07 21:00N 40°39' W 074°06'0 0.0
2017-Oct-07 20:30N 40°39' W 074°06'  

Dump ship's entire track history